createdAt,value
2019-02-17T05:00:40.379Z,96.64
2019-02-17T05:01:36.091Z,97.55
2019-02-17T05:02:36.043Z,97.75
2019-02-17T05:03:36.040Z,97.75
2019-02-17T05:04:35.729Z,97.59
2019-02-17T05:05:35.928Z,97.86
2019-02-17T05:06:36.152Z,97.55
2019-02-17T05:07:36.368Z,98.28
2019-02-17T05:08:36.543Z,98.39
2019-02-17T05:09:36.737Z,98.18
2019-02-17T05:10:36.902Z,97.75
2019-02-17T05:11:38.083Z,97.80
2019-02-17T05:12:37.259Z,97.44
2019-02-17T05:13:37.450Z,97.17
2019-02-17T05:14:37.621Z,96.28
2019-02-17T05:15:37.798Z,98.07
2019-02-17T05:16:37.984Z,97.44
2019-02-17T05:17:38.172Z,97.65
2019-02-17T05:18:39.051Z,97.65
2019-02-17T05:19:39.574Z,97.75
2019-02-17T05:20:38.718Z,97.65
2019-02-17T05:21:38.950Z,97.33
2019-02-17T05:22:39.537Z,97.86
2019-02-17T05:23:40.345Z,97.23
2019-02-17T05:24:39.503Z,97.65
2019-02-17T05:25:40.542Z,98.18
2019-02-17T05:26:39.831Z,96.39
2019-02-17T05:27:40.069Z,96.17
2019-02-17T05:28:40.262Z,96.59
2019-02-17T05:29:40.436Z,95.54
2019-02-17T05:30:51.673Z,95.75
2019-02-17T05:31:43.543Z,96.95
2019-02-17T05:32:40.896Z,96.43
2019-02-17T05:33:41.087Z,95.86
2019-02-17T05:34:41.278Z,96.70
2019-02-17T05:35:41.448Z,95.26
2019-02-17T05:36:41.638Z,94.74
2019-02-17T05:37:41.826Z,94.42
2019-02-17T05:38:42.033Z,94.74
2019-02-17T05:39:42.201Z,94.95
2019-02-17T05:40:42.398Z,94.89
2019-02-17T05:41:42.554Z,95.10
2019-02-17T05:42:42.754Z,95.26
2019-02-17T05:43:42.917Z,95.06
2019-02-17T05:44:43.103Z,95.42
2019-02-17T05:45:43.285Z,95.31
2019-02-17T05:46:43.479Z,95.58
2019-02-17T05:47:43.655Z,95.31
2019-02-17T05:48:43.827Z,94.36
2019-02-17T05:49:44.046Z,93.62
2019-02-17T05:50:44.127Z,92.92
2019-02-17T05:51:44.330Z,92.99
2019-02-17T05:52:44.521Z,94.51
2019-02-17T05:53:44.695Z,94.25
2019-02-17T05:54:44.901Z,94.89
2019-02-17T05:55:45.090Z,96.37
2019-02-17T05:56:45.275Z,96.64
2019-02-17T05:57:45.460Z,97.69
2019-02-17T05:58:45.638Z,99.60
2019-02-17T05:59:45.825Z,99.99
2019-02-17T06:00:46.013Z,99.82
2019-02-17T06:01:46.306Z,99.99
2019-02-17T06:02:46.383Z,99.99
2019-02-17T06:03:46.569Z,99.99
2019-02-17T06:04:46.770Z,99.99
2019-02-17T06:05:46.948Z,99.99
2019-02-17T06:06:47.112Z,99.99
2019-02-17T06:07:47.271Z,99.99
2019-02-17T06:08:47.474Z,99.99
2019-02-17T06:09:47.627Z,99.99
2019-02-17T06:10:47.786Z,99.84
2019-02-17T06:11:47.930Z,99.99
2019-02-17T06:12:48.087Z,99.31
2019-02-17T06:13:48.263Z,99.35
2019-02-17T06:14:48.427Z,99.57
2019-02-17T06:15:48.578Z,98.51
2019-02-17T06:16:48.743Z,97.77
2019-02-17T06:17:48.871Z,97.45
2019-02-17T06:18:49.017Z,97.03
2019-02-17T06:19:49.157Z,96.19
2019-02-17T06:20:49.302Z,96.41
2019-02-17T06:21:49.463Z,97.03
2019-02-17T06:22:49.671Z,97.67
2019-02-17T06:23:49.866Z,97.71
2019-02-17T06:24:50.071Z,97.88
2019-02-17T06:25:50.245Z,97.99
2019-02-17T06:26:50.448Z,96.19
2019-02-17T06:27:50.629Z,96.03
2019-02-17T06:28:51.464Z,96.30
2019-02-17T06:29:50.973Z,96.61
2019-02-17T06:30:51.138Z,96.72
2019-02-17T06:31:51.304Z,96.41
2019-02-17T06:32:51.488Z,95.92
2019-02-17T06:33:51.659Z,95.60
2019-02-17T06:34:51.965Z,95.29
2019-02-17T06:35:52.075Z,94.76
2019-02-17T06:36:53.351Z,94.97
2019-02-17T06:37:52.552Z,94.76
2019-02-17T06:38:52.700Z,95.56
2019-02-17T06:39:52.961Z,96.23
2019-02-17T06:40:53.114Z,96.45
2019-02-17T06:41:53.365Z,96.61
2019-02-17T06:42:53.373Z,96.30
2019-02-17T06:43:53.751Z,95.45
2019-02-17T06:44:53.841Z,95.03
2019-02-17T06:45:53.906Z,95.24
2019-02-17T06:46:54.146Z,94.93
2019-02-17T06:47:54.353Z,94.12
2019-02-17T06:48:54.578Z,93.49
2019-02-17T06:49:54.698Z,93.18
2019-02-17T06:50:55.048Z,93.70
2019-02-17T06:51:55.044Z,92.86
2019-02-17T06:52:55.168Z,92.65
2019-02-17T06:53:55.442Z,93.18
2019-02-17T06:54:55.898Z,94.23
2019-02-17T06:55:55.932Z,94.97
2019-02-17T06:56:56.592Z,94.34
2019-02-17T06:57:56.075Z,94.08
2019-02-17T06:58:56.281Z,94.61
2019-02-17T06:59:56.500Z,95.56
2019-02-17T07:00:57.200Z,95.98
2019-02-17T07:01:57.429Z,96.41
2019-02-17T07:02:57.227Z,95.83
2019-02-17T07:03:57.163Z,94.99
2019-02-17T07:04:58.751Z,95.03
2019-02-17T07:05:57.657Z,94.19
2019-02-17T07:06:57.913Z,94.15
2019-02-17T07:07:57.923Z,94.25
2019-02-17T07:08:58.045Z,93.03
2019-02-17T07:09:58.142Z,92.77
2019-02-17T07:10:58.386Z,92.88
2019-02-17T07:11:58.573Z,92.77
2019-02-17T07:12:58.863Z,91.83
2019-02-17T07:13:58.947Z,92.03
2019-02-17T07:14:59.161Z,91.72
2019-02-17T07:15:59.416Z,92.14
2019-02-17T07:16:59.582Z,90.94
2019-02-17T07:17:59.626Z,90.98
2019-02-17T07:18:59.868Z,89.82
2019-02-17T07:20:00.494Z,89.93
2019-02-17T07:21:34.026Z,91.09
2019-02-17T07:22:00.428Z,92.52
2019-02-17T07:23:01.563Z,92.73
2019-02-17T07:24:00.796Z,92.84
2019-02-17T07:25:00.965Z,93.26
2019-02-17T07:26:01.130Z,93.47
2019-02-17T07:27:02.067Z,93.64
2019-02-17T07:28:02.062Z,93.91
2019-02-17T07:29:02.563Z,93.70
2019-02-17T07:30:01.843Z,93.03
2019-02-17T07:31:01.988Z,92.61
2019-02-17T07:32:02.159Z,92.73
2019-02-17T07:33:02.350Z,93.01
2019-02-17T07:34:02.523Z,92.65
2019-02-17T07:35:02.803Z,91.83
2019-02-17T07:36:02.937Z,91.12
2019-02-17T07:37:03.114Z,90.66
2019-02-17T07:38:03.269Z,88.84
2019-02-17T07:39:03.425Z,88.59
2019-02-17T07:40:03.615Z,86.83
2019-02-17T07:41:03.784Z,86.06
2019-02-17T07:42:04.963Z,84.94
2019-02-17T07:43:04.088Z,83.64
2019-02-17T07:44:04.247Z,79.71
2019-02-17T07:45:04.403Z,78.14
2019-02-17T07:46:04.544Z,76.12
2019-02-17T07:47:04.733Z,74.18
2019-02-17T07:48:04.883Z,73.60
2019-02-17T07:49:05.031Z,72.07
2019-02-17T07:50:05.167Z,68.34
2019-02-17T07:51:05.340Z,67.17
2019-02-17T07:52:06.014Z,68.15
2019-02-17T07:53:05.717Z,64.90
2019-02-17T07:54:06.163Z,65.08
2019-02-17T07:55:06.102Z,64.48
2019-02-17T07:56:06.274Z,63.51
2019-02-17T07:57:06.433Z,62.01
2019-02-17T07:58:07.575Z,58.53
2019-02-17T07:59:07.152Z,55.98
2019-02-17T08:00:07.026Z,53.25
2019-02-17T08:01:07.555Z,52.28
2019-02-17T08:02:07.438Z,52.33
2019-02-17T08:03:07.521Z,50.95
2019-02-17T08:04:07.720Z,49.26
2019-02-17T08:05:07.920Z,47.27
2019-02-17T08:06:08.169Z,46.49
2019-02-17T08:07:08.257Z,44.81
2019-02-17T08:08:08.487Z,42.57
2019-02-17T08:09:08.721Z,43.04
2019-02-17T08:10:08.833Z,40.78
2019-02-17T08:11:09.923Z,40.45
2019-02-17T08:12:09.233Z,44.71
2019-02-17T08:13:09.368Z,45.14
2019-02-17T08:14:09.501Z,39.13
2019-02-17T08:15:09.605Z,44.02
2019-02-17T08:16:09.899Z,43.94
2019-02-17T08:17:10.060Z,45.16
2019-02-17T08:18:11.106Z,44.16
2019-02-17T08:19:11.146Z,42.71
2019-02-17T08:20:11.106Z,43.53
2019-02-17T08:21:10.712Z,44.83
2019-02-17T08:22:10.948Z,44.98
2019-02-17T08:23:11.082Z,42.30
2019-02-17T08:24:11.334Z,42.82
2019-02-17T08:25:19.402Z,41.47
2019-02-17T08:26:12.622Z,42.98
2019-02-17T08:27:11.719Z,42.33
2019-02-17T08:28:11.944Z,39.66
2019-02-17T08:29:12.097Z,40.56
2019-02-17T08:30:12.225Z,40.86
2019-02-17T08:31:12.452Z,43.24
2019-02-17T08:32:12.587Z,41.61
2019-02-17T08:33:12.794Z,42.33
2019-02-17T08:34:12.996Z,42.63
2019-02-17T08:35:13.218Z,40.30
2019-02-17T08:36:13.449Z,42.53
2019-02-17T08:37:13.659Z,42.61
2019-02-17T08:38:13.870Z,40.37
2019-02-17T08:39:14.086Z,40.68
2019-02-17T08:40:14.316Z,42.00
2019-02-17T08:41:14.541Z,39.87
2019-02-17T08:42:14.783Z,40.66
2019-02-17T08:43:15.021Z,39.34
2019-02-17T08:44:15.217Z,40.22
2019-02-17T08:45:15.415Z,39.45
2019-02-17T08:46:15.626Z,39.31
2019-02-17T08:47:15.903Z,35.55
2019-02-17T08:48:15.984Z,35.33
2019-02-17T08:49:16.969Z,35.70
2019-02-17T08:50:16.405Z,33.88
2019-02-17T08:51:16.631Z,34.69
2019-02-17T08:52:16.865Z,35.73
2019-02-17T08:53:16.970Z,36.34
2019-02-17T08:54:17.201Z,37.07
2019-02-17T08:55:17.426Z,37.79
2019-02-17T08:56:18.783Z,37.83
2019-02-17T08:57:18.779Z,38.05
2019-02-17T08:58:17.952Z,37.44
2019-02-17T08:59:18.152Z,38.56
2019-02-17T09:15:31.499Z,29.74
2019-02-17T09:16:31.661Z,29.24
2019-02-17T09:17:31.831Z,29.32
2019-02-17T09:18:31.997Z,28.72
2019-02-17T09:19:32.229Z,28.79
2019-02-17T09:20:32.273Z,27.97
2019-02-17T09:21:32.478Z,28.38
2019-02-17T09:22:32.640Z,29.68
2019-02-17T09:23:33.980Z,28.26
2019-02-17T09:24:34.177Z,29.14
2019-02-17T09:25:34.475Z,27.39
2019-02-17T09:26:34.584Z,26.59
2019-02-17T09:27:34.703Z,27.17
2019-02-17T10:10:20.261Z,25.46
2019-02-17T10:11:29.493Z,26.56
2019-02-17T10:12:20.677Z,25.20
2019-02-17T10:13:20.917Z,27.24
2019-02-17T10:14:21.107Z,27.55
2019-02-17T10:15:21.377Z,26.15
2019-02-17T10:16:21.471Z,27.93
2019-02-17T10:17:22.921Z,25.97
2019-02-17T10:18:23.204Z,26.26
2019-02-17T10:19:23.259Z,28.34
2019-02-17T10:20:24.645Z,27.34
2019-02-17T10:21:25.041Z,25.74
2019-02-17T10:22:24.065Z,26.23
2019-02-17T10:23:24.170Z,24.84
2019-02-17T10:24:24.565Z,24.74
2019-02-17T10:25:24.533Z,24.24
2019-02-17T10:26:24.727Z,25.13
2019-02-17T10:27:25.502Z,25.93
2019-02-17T10:28:24.925Z,24.93
2019-02-17T10:29:25.355Z,25.63
2019-02-17T10:30:25.431Z,26.02
2019-02-17T10:31:25.641Z,27.22
2019-02-17T10:32:25.890Z,26.42
2019-02-17T10:33:26.163Z,26.14
2019-02-17T10:34:26.985Z,26.43
2019-02-17T10:35:26.195Z,25.12
2019-02-17T10:36:27.296Z,25.63
2019-02-17T10:37:26.553Z,25.02
2019-02-17T10:38:29.995Z,25.13
2019-02-17T10:39:28.661Z,24.14
2019-02-17T10:40:28.762Z,25.55
2019-02-17T10:41:28.284Z,27.12
2019-02-17T10:42:30.889Z,24.81
2019-02-17T10:43:28.651Z,24.39
2019-02-17T10:44:27.670Z,24.57
2019-02-17T10:45:32.968Z,22.58
2019-02-17T10:46:29.192Z,23.18
2019-02-17T10:47:29.204Z,25.63
2019-02-17T10:48:30.610Z,21.16
2019-02-17T10:49:28.867Z,24.04
2019-02-17T10:50:29.055Z,22.66
2019-02-17T10:51:29.038Z,22.66
2019-02-17T10:52:31.437Z,22.10
2019-02-17T10:53:31.493Z,23.13
2019-02-17T10:54:31.260Z,26.01
2019-02-17T10:55:29.777Z,23.63
2019-02-17T10:56:29.651Z,25.01
2019-02-17T10:57:30.049Z,26.51
2019-02-17T10:58:30.117Z,26.40
2019-02-17T10:59:45.680Z,24.84
2019-02-17T13:06:22.072Z,19.98
2019-02-17T13:07:25.354Z,18.88
2019-02-17T13:08:23.564Z,18.68
2019-02-17T13:09:23.715Z,18.67
2019-02-17T13:10:24.272Z,18.26
2019-02-17T13:11:24.111Z,18.04
2019-02-17T13:12:24.549Z,16.68
2019-02-17T13:13:24.728Z,17.17
2019-02-17T13:14:24.649Z,16.58
2019-02-17T13:15:25.256Z,20.14
2019-02-17T13:16:25.257Z,17.38
2019-02-17T13:17:25.588Z,17.80
2019-02-17T13:18:25.909Z,20.00
2019-02-17T13:19:25.964Z,19.81
2019-02-17T13:20:26.348Z,18.33
2019-02-17T13:21:26.613Z,18.71
2019-02-17T13:22:26.591Z,20.30
2019-02-17T13:23:26.829Z,18.61
2019-02-17T13:24:27.661Z,18.12
2019-02-17T13:25:30.011Z,20.31
2019-02-17T13:26:29.089Z,18.12
2019-02-17T13:27:27.505Z,20.01
2019-02-17T13:28:27.752Z,18.93
2019-02-17T13:29:27.946Z,18.15
2019-02-17T13:30:28.060Z,18.54
2019-02-17T13:31:28.080Z,18.73
2019-02-17T13:32:28.380Z,19.82
2019-02-17T13:33:38.515Z,20.50
2019-02-17T13:34:29.627Z,19.60
2019-02-17T13:35:28.736Z,18.43
2019-02-17T13:36:30.244Z,18.84
2019-02-17T13:37:30.251Z,18.44
2019-02-17T13:38:30.482Z,21.51
2019-02-17T13:39:29.470Z,18.74
2019-02-17T13:40:29.379Z,19.82
2019-02-17T13:41:29.802Z,20.43
2019-02-17T13:42:29.786Z,19.05
2019-02-17T13:43:29.971Z,20.35
2019-02-17T13:44:29.999Z,17.49
2019-02-17T13:45:30.166Z,18.29
2019-02-17T13:46:30.252Z,19.39
2019-02-17T13:47:30.519Z,20.09
2019-02-17T13:48:31.505Z,18.79
2019-02-17T13:49:30.750Z,19.89
2019-02-17T13:50:31.711Z,20.20
2019-02-17T13:51:31.269Z,19.59
2019-02-17T13:52:32.086Z,19.59
2019-02-17T13:53:34.380Z,19.89
2019-02-17T13:54:33.087Z,21.17
2019-02-17T13:55:32.540Z,21.77
2019-02-17T13:56:32.417Z,19.99
2019-02-17T13:57:39.835Z,19.10
2019-02-17T13:58:32.863Z,21.39
2019-02-17T13:59:33.191Z,19.63
2019-02-17T14:00:33.136Z,21.53
2019-02-17T14:01:33.676Z,24.32
2019-02-17T14:02:33.415Z,20.95
2019-02-17T14:03:33.619Z,20.98
